Time;durP1;ratioP1;P1;durP2;ratioP2;P2;SDS_P1;SDS_P2;PMS_P1;PMS_P2;Temp;Humidity;BMP_temperature;BMP_pressure;BME280_temperature;BME280_humidity;BME280_pressure;Samples;Min_cycle;Max_cycle;Signal;HPM_P1;HPM_P2
2023/01/04 00:02:23;;;;;;;5.10;3.08;;;;;;;8.39;100.00;101469.75;5014707;28;20037;-65
2023/01/04 00:04:49;;;;;;;4.93;3.00;;;;;;;8.41;100.00;101479.34;4997702;28;20030;-61
2023/01/04 00:07:14;;;;;;;6.68;2.85;;;;;;;8.41;100.00;101463.59;5015307;28;20044;-63
2023/01/04 00:09:39;;;;;;;4.72;2.85;;;;;;;8.34;100.00;101448.84;5015100;28;20046;-63
2023/01/04 00:12:05;;;;;;;6.55;3.30;;;;;;;8.40;100.00;101464.50;5014203;28;20520;-63
2023/01/04 00:14:31;;;;;;;3.25;2.55;;;;;;;8.41;100.00;101453.09;5014262;28;20026;-62
2023/01/04 00:16:56;;;;;;;4.85;2.80;;;;;;;8.08;100.00;101387.97;5014472;28;20061;-65
2023/01/04 00:19:22;;;;;;;3.53;2.83;;;;;;;8.36;100.00;101436.56;5014527;28;20056;-66
2023/01/04 00:21:47;;;;;;;4.60;2.70;;;;;;;8.00;100.00;101368.00;4996745;28;20038;-62
2023/01/04 00:24:14;;;;;;;5.47;2.70;;;;;;;7.84;100.00;101351.59;5014568;28;20033;-62
2023/01/04 00:26:40;;;;;;;7.00;2.70;;;;;;;8.38;100.00;101432.16;4997192;28;20038;-63
2023/01/04 00:29:06;;;;;;;3.58;2.72;;;;;;;8.43;100.00;101440.81;5014331;28;20485;-62
2023/01/04 00:31:32;;;;;;;4.95;2.50;;;;;;;8.34;100.00;101399.00;4996905;28;20049;-60
2023/01/04 00:34:01;;;;;;;3.63;2.65;;;;;;;8.49;100.00;101437.28;4996793;28;20527;-65
2023/01/04 00:36:27;;;;;;;3.50;2.70;;;;;;;8.20;100.00;101379.91;5014335;28;20029;-61
2023/01/04 00:39:08;;;;;;;6.43;3.25;;;;;;;8.45;100.00;101389.22;4996532;28;20026;-61
2023/01/04 00:41:48;;;;;;;4.65;3.15;;;;;;;7.88;100.00;101311.34;5013996;28;20040;-62
2023/01/04 00:44:14;;;;;;;8.55;4.03;;;;;;;8.09;100.00;101334.63;4980225;28;20040;-61
2023/01/04 00:46:40;;;;;;;5.70;4.25;;;;;;;8.10;100.00;101322.38;5013591;28;20552;-61
2023/01/04 00:49:06;;;;;;;5.22;4.72;;;;;;;8.54;100.00;101405.69;5013779;28;20117;-62
2023/01/04 00:51:33;;;;;;;8.07;5.50;;;;;;;8.12;100.00;101318.84;4996365;28;20598;-62
2023/01/04 00:54:00;;;;;;;6.47;5.28;;;;;;;8.13;100.00;101328.47;4996294;28;20030;-61
2023/01/04 00:56:28;;;;;;;7.78;5.43;;;;;;;8.46;100.00;101367.31;4995982;28;20061;-62
2023/01/04 00:58:55;;;;;;;8.45;5.38;;;;;;;8.65;100.00;101378.41;4996364;28;20462;-62
2023/01/04 01:01:20;;;;;;;6.30;5.68;;;;;;;8.65;100.00;101370.53;5013529;28;20041;-62
2023/01/04 01:03:45;;;;;;;7.35;5.25;;;;;;;8.34;100.00;101295.84;4996064;28;20026;-67
2023/01/04 01:06:11;;;;;;;6.22;5.63;;;;;;;8.45;100.00;101344.63;5013426;28;20477;-67
2023/01/04 01:08:36;;;;;;;5.60;5.10;;;;;;;8.61;100.00;101341.75;5014000;28;20041;-65
2023/01/04 01:11:09;;;;;;;7.93;5.45;;;;;;;8.79;100.00;101380.78;5013188;28;20389;-62
2023/01/04 01:13:35;;;;;;;7.68;5.25;;;;;;;8.48;100.00;101299.97;4995741;28;20071;-62
2023/01/04 01:16:06;;;;;;;8.95;4.95;;;;;;;8.47;100.00;101295.59;5013395;28;20080;-59
2023/01/04 01:18:32;;;;;;;9.73;5.63;;;;;;;8.53;100.00;101294.63;5013551;28;20037;-60
2023/01/04 01:20:58;;;;;;;6.70;4.75;;;;;;;8.76;100.00;101323.97;5012722;28;20405;-62
2023/01/04 01:23:23;;;;;;;8.32;5.05;;;;;;;9.00;100.00;101360.31;5012935;28;20044;-62
2023/01/04 01:25:48;;;;;;;6.60;5.15;;;;;;;8.74;100.00;101327.53;5012952;28;20473;-64
2023/01/04 01:28:14;;;;;;;5.45;4.72;;;;;;;9.03;100.00;101352.38;5013212;28;20034;-60
2023/01/04 01:30:43;;;;;;;7.03;4.82;;;;;;;8.73;100.00;101310.03;5012669;28;20026;-59
2023/01/04 01:33:09;;;;;;;5.80;4.60;;;;;;;9.08;100.00;101364.56;5012966;28;20457;-59
2023/01/04 01:35:34;;;;;;;9.27;5.10;;;;;;;9.13;100.00;101360.09;5013120;28;20437;-63
2023/01/04 01:38:00;;;;;;;6.60;5.32;;;;;;;9.16;100.00;101365.28;5013114;28;20042;-62
2023/01/04 01:40:26;;;;;;;7.53;5.22;;;;;;;9.18;100.00;101364.38;4995347;28;20519;-65
2023/01/04 01:42:51;;;;;;;6.80;5.05;;;;;;;8.92;100.00;101308.81;5013138;28;20034;-64
2023/01/04 01:45:31;;;;;;;5.68;4.55;;;;;;;9.14;100.00;101344.28;4995555;28;20042;-65
2023/01/04 01:48:04;;;;;;;9.05;5.65;;;;;;;9.24;100.00;101350.25;4979178;28;20203;-63
2023/01/04 01:50:40;;;;;;;7.00;5.30;;;;;;;9.12;100.00;101324.22;4995252;28;20072;-62
2023/01/04 01:53:06;;;;;;;5.72;5.07;;;;;;;9.07;100.00;101319.06;5012910;28;20034;-66
2023/01/04 01:55:32;;;;;;;7.80;5.35;;;;;;;9.30;100.00;101350.13;4995235;28;20381;-62
2023/01/04 01:57:58;;;;;;;7.10;5.32;;;;;;;9.26;100.00;101341.44;5012623;28;20045;-63
2023/01/04 02:00:24;;;;;;;6.70;5.50;;;;;;;9.33;100.00;101350.94;4994999;28;20408;-64
2023/01/04 02:02:58;;;;;;;6.40;5.82;;;;;;;9.34;100.00;101336.91;4995088;28;20045;-64
2023/01/04 02:05:24;;;;;;;6.63;4.88;;;;;;;9.34;100.00;101336.06;5012699;28;20026;-63
2023/01/04 02:07:49;;;;;;;7.45;4.97;;;;;;;9.41;100.00;101372.69;4978835;28;20160;-64
2023/01/04 02:10:15;;;;;;;7.28;5.20;;;;;;;9.45;100.00;101350.72;5011723;28;20111;-63
2023/01/04 02:12:41;;;;;;;8.35;5.13;;;;;;;9.49;100.00;101340.97;4995255;28;20424;-62
2023/01/04 02:15:06;;;;;;;6.28;5.32;;;;;;;9.51;100.00;101353.22;4995021;28;20034;-64
2023/01/04 02:17:53;;;;;;;5.93;5.43;;;;;;;9.55;100.00;101359.25;5012172;28;20030;-65
2023/01/04 02:20:24;;;;;;;5.65;5.07;;;;;;;9.59;100.00;101355.69;4995151;28;20061;-65
2023/01/04 02:22:55;;;;;;;6.30;5.28;;;;;;;9.61;100.00;101370.53;5012383;28;20049;-63
2023/01/04 02:25:39;;;;;;;6.07;5.55;;;;;;;9.61;100.00;101388.06;5012345;28;20378;-66
2023/01/04 02:28:26;;;;;;;7.03;6.15;;;;;;;9.63;100.00;101360.84;5012412;28;20096;-65
2023/01/04 02:31:22;;;;;;;7.32;6.20;;;;;;;9.66;100.00;101344.13;5011985;28;20049;-65
2023/01/04 02:34:04;;;;;;;6.80;5.93;;;;;;;9.67;100.00;101343.25;5012295;28;20041;-66
2023/01/04 02:36:39;;;;;;;10.20;6.53;;;;;;;9.37;100.00;101279.03;5012473;28;20037;-63
2023/01/04 02:39:13;;;;;;;14.05;6.95;;;;;;;9.38;100.00;101280.78;4994939;28;20072;-63
2023/01/04 02:41:56;;;;;;;10.65;6.78;;;;;;;9.74;100.00;101330.84;4994653;28;20030;-65
2023/01/04 02:44:52;;;;;;;6.90;6.30;;;;;;;9.40;100.00;101264.97;5011850;28;20083;-62
2023/01/04 02:50:29;;;;;;;8.13;6.97;;;;;;;9.76;100.00;101313.28;4997563;28;20080;-64
2023/01/04 02:53:05;;;;;;;7.18;6.47;;;;;;;9.74;100.00;101304.56;4978992;28;20481;-65
2023/01/04 02:56:01;;;;;;;10.45;6.45;;;;;;;9.87;100.00;101325.28;4979874;28;20049;-63
2023/01/04 02:58:47;;;;;;;7.15;6.45;;;;;;;9.90;100.00;101334.88;5012001;28;20037;-63
2023/01/04 03:07:25;;;;;;;7.63;6.38;;;;;;;9.81;100.00;101295.63;5012021;28;20137;-63
2023/01/04 03:09:55;;;;;;;7.82;6.60;;;;;;;9.92;100.00;101310.28;4994536;28;20109;-63
2023/01/04 03:12:32;;;;;;;7.22;6.53;;;;;;;9.95;100.00;101307.56;4994444;28;20026;-63
2023/01/04 03:15:19;;;;;;;6.93;6.32;;;;;;;9.92;100.00;101305.03;4995566;28;20440;-64
2023/01/04 03:17:49;;;;;;;6.47;5.97;;;;;;;9.53;100.00;101214.78;4994492;28;20037;-65
2023/01/04 03:20:16;;;;;;;7.18;6.10;;;;;;;9.91;100.00;101310.31;4995364;28;20508;-63
2023/01/04 03:36:59;;;;;;;7.60;6.30;;;;;;;9.99;100.00;101298.72;5015067;28;20129;-66
2023/01/04 03:48:42;;;;;;;5.80;5.13;;;;;;;9.71;100.00;101205.59;5015415;28;20045;-63
2023/01/04 03:51:15;;;;;;;5.68;5.13;;;;;;;10.04;100.00;101267.91;4997455;28;20026;-64
2023/01/04 03:54:03;;;;;;;8.00;5.80;;;;;;;10.05;100.00;101280.16;4997699;28;20033;-65
2023/01/04 03:56:30;;;;;;;7.60;6.80;;;;;;;10.05;100.00;101269.66;4997563;28;20034;-64
2023/01/04 03:58:56;;;;;;;9.48;6.85;;;;;;;10.04;100.00;101248.66;4997076;28;20037;-65
2023/01/04 04:01:23;;;;;;;8.48;7.68;;;;;;;9.71;100.00;101194.22;4996983;28;20037;-65
2023/01/04 04:09:16;;;;;;;9.63;8.73;;;;;;;9.77;100.00;101162.53;4999910;28;20096;-64
2023/01/04 04:11:42;;;;;;;9.48;8.23;;;;;;;9.84;100.00;101170.22;4997538;28;20042;-64
2023/01/04 04:14:07;;;;;;;8.52;7.72;;;;;;;9.85;100.00;101173.72;5014477;28;20058;-66
2023/01/04 04:16:32;;;;;;;8.68;7.70;;;;;;;9.90;100.00;101156.94;5015051;28;20124;-63
2023/01/04 04:18:58;;;;;;;9.75;7.32;;;;;;;10.33;100.00;101217.28;4997194;28;20029;-64
2023/01/04 04:21:23;;;;;;;10.00;6.13;;;;;;;10.36;100.00;101232.97;5014856;28;20037;-63
2023/01/04 04:23:49;;;;;;;8.27;5.13;;;;;;;10.11;100.00;101172.19;5014384;28;20037;-63
2023/01/04 04:26:14;;;;;;;9.50;5.57;;;;;;;10.03;100.00;101154.88;5013993;28;20072;-65
2023/01/04 04:28:40;;;;;;;7.20;4.70;;;;;;;10.48;100.00;101221.25;5013575;28;20470;-63
2023/01/04 04:31:05;;;;;;;7.70;4.10;;;;;;;10.50;100.00;101227.38;5013696;28;20508;-64
2023/01/04 04:33:31;;;;;;;7.00;3.83;;;;;;;10.44;100.00;101196.81;5013927;28;20080;-65
2023/01/04 04:35:56;;;;;;;6.50;3.63;;;;;;;10.52;100.00;101213.25;5014319;28;20038;-64
2023/01/04 04:38:21;;;;;;;6.97;3.90;;;;;;;10.22;100.00;101161.41;5014128;28;20043;-62
2023/01/04 04:43:32;;;;;;;8.00;3.58;;;;;;;10.52;100.00;101196.59;4999468;28;20108;-65
2023/01/04 04:45:58;;;;;;;6.40;3.80;;;;;;;10.64;100.00;101217.34;5014048;28;20050;-64
2023/01/04 04:48:24;;;;;;;5.43;3.30;;;;;;;10.55;100.00;101202.66;4996505;28;20069;-64
2023/01/04 04:50:49;;;;;;;8.80;3.97;;;;;;;10.51;100.00;101177.31;5013973;28;20072;-65
2023/01/04 04:53:14;;;;;;;5.00;3.35;;;;;;;10.50;100.00;101217.72;5013747;28;20033;-65
2023/01/04 04:55:40;;;;;;;5.63;3.42;;;;;;;10.56;100.00;101220.19;5013872;28;20054;-66
2023/01/04 04:58:05;;;;;;;5.50;2.85;;;;;;;10.53;100.00;101199.19;4996078;28;20054;-67
2023/01/04 05:00:30;;;;;;;4.50;3.08;;;;;;;10.54;100.00;101206.19;4995764;28;20033;-67
2023/01/04 05:03:00;;;;;;;4.18;3.13;;;;;;;10.55;100.00;101191.25;5013568;28;20041;-66
2023/01/04 05:05:25;;;;;;;6.00;3.40;;;;;;;10.49;100.00;101202.81;4996110;28;20621;-66
2023/01/04 05:07:50;;;;;;;5.40;4.50;;;;;;;10.46;100.00;101196.75;5013438;28;20068;-61
2023/01/04 05:10:16;;;;;;;8.45;5.15;;;;;;;10.41;100.00;101172.34;5013391;28;20029;-63
2023/01/04 05:12:59;;;;;;;7.50;5.75;;;;;;;10.42;100.00;101167.00;5013291;28;20045;-63
2023/01/04 05:15:30;;;;;;;6.03;5.43;;;;;;;10.10;100.00;101109.09;5013519;28;20034;-66
2023/01/04 05:17:56;;;;;;;;;;;;;;;10.46;100.00;101162.53;5013877;28;20026;-65
2023/01/04 05:20:21;;;;;;;5.00;4.60;;;;;;;10.37;100.00;101157.53;4995471;28;19967;-65
2023/01/04 05:22:46;;;;;;;6.38;4.80;;;;;;;10.45;100.00;101155.56;4995770;28;20311;-63
2023/01/04 05:25:12;;;;;;;7.07;6.10;;;;;;;10.45;100.00;101166.09;4995267;28;20034;-65
2023/01/04 05:27:37;;;;;;;7.18;6.57;;;;;;;10.11;100.00;101102.94;5013374;28;20044;-64
2023/01/04 05:32:48;;;;;;;12.15;7.32;;;;;;;10.48;100.00;101148.44;5013454;28;20088;-64
2023/01/04 05:35:14;;;;;;;6.70;6.13;;;;;;;10.22;100.00;101100.91;5013008;28;20432;-66
2023/01/04 05:37:39;;;;;;;9.27;7.25;;;;;;;10.46;100.00;101147.63;5013562;28;20506;-64
2023/01/04 05:40:04;;;;;;;8.45;6.00;;;;;;;10.44;100.00;101131.03;5013242;28;20433;-66
2023/01/04 05:42:30;;;;;;;6.78;6.10;;;;;;;10.28;100.00;101090.22;5012854;28;20515;-64
2023/01/04 05:44:57;;;;;;;8.43;7.05;;;;;;;10.42;100.00;101137.22;4994086;28;20050;-63
2023/01/04 05:47:23;;;;;;;7.30;6.60;;;;;;;10.21;100.00;101075.53;4995482;28;20034;-62
2023/01/04 05:49:48;;;;;;;7.70;6.90;;;;;;;10.40;100.00;101116.19;5012854;28;20045;-64
2023/01/04 05:52:14;;;;;;;7.13;6.47;;;;;;;10.38;100.00;101125.91;5012864;28;20061;-66
2023/01/04 05:54:39;;;;;;;6.90;6.20;;;;;;;10.52;100.00;101121.13;4995467;28;20381;-65
2023/01/04 05:57:05;;;;;;;7.28;6.10;;;;;;;10.22;100.00;101098.28;5013267;28;20033;-59
2023/01/04 05:59:31;;;;;;;6.25;5.65;;;;;;;10.35;100.00;101126.00;4995370;28;20037;-64
2023/01/04 06:01:56;;;;;;;7.07;6.38;;;;;;;10.62;100.00;101158.59;5012396;28;20089;-66
2023/01/04 06:04:21;;;;;;;7.05;5.45;;;;;;;10.22;100.00;101114.06;5013031;28;20096;-63
2023/01/04 06:06:47;;;;;;;6.70;5.82;;;;;;;10.21;100.00;101090.44;5012519;28;20034;-64
2023/01/04 06:09:12;;;;;;;6.80;5.57;;;;;;;10.33;100.00;101103.28;5012518;28;20417;-67
2023/01/04 06:11:37;;;;;;;9.25;5.13;;;;;;;10.65;100.00;101169.88;4979013;28;20033;-64
2023/01/04 06:14:03;;;;;;;5.55;4.60;;;;;;;10.35;100.00;101102.31;5012454;28;20030;-62
2023/01/04 06:16:28;;;;;;;7.00;5.18;;;;;;;10.68;100.00;101163.72;5012659;28;20042;-65
2023/01/04 06:18:53;;;;;;;8.32;5.25;;;;;;;10.67;100.00;101156.69;4995158;28;20041;-64
2023/01/04 06:21:19;;;;;;;5.80;4.00;;;;;;;10.74;100.00;101145.94;4994656;28;20029;-64
2023/01/04 06:23:44;;;;;;;6.50;3.60;;;;;;;10.60;100.00;101134.94;4995191;28;20087;-64
2023/01/04 06:26:09;;;;;;;7.13;3.63;;;;;;;10.10;100.00;101040.69;5012680;28;20064;-64
2023/01/04 06:28:35;;;;;;;9.70;3.65;;;;;;;10.68;100.00;101150.53;5012509;28;20496;-65
2023/01/04 06:31:05;;;;;;;8.32;3.42;;;;;;;10.28;100.00;101058.66;5012240;28;20401;-66
2023/01/04 06:33:31;;;;;;;5.78;3.58;;;;;;;10.32;100.00;101073.47;5012453;28;20516;-66
2023/01/04 06:35:56;;;;;;;9.57;4.30;;;;;;;10.79;100.00;101147.59;4978740;28;20061;-64
2023/01/04 06:38:22;;;;;;;7.13;3.38;;;;;;;10.45;100.00;101095.03;5012396;28;20113;-64
2023/01/04 06:40:47;;;;;;;8.50;3.45;;;;;;;10.45;100.00;101072.19;5012293;28;20059;-62
2023/01/04 06:43:12;;;;;;;10.15;4.15;;;;;;;10.42;100.00;101087.22;4994780;28;20042;-64
2023/01/04 06:45:38;;;;;;;10.60;4.68;;;;;;;10.63;100.00;101118.19;5012143;28;20050;-66
2023/01/04 06:48:03;;;;;;;7.63;4.43;;;;;;;10.27;100.00;101053.44;5011964;28;20037;-64
2023/01/04 06:50:29;;;;;;;12.00;4.82;;;;;;;10.77;100.00;101131.00;5012264;28;20033;-64
2023/01/04 06:52:54;;;;;;;12.07;4.80;;;;;;;10.73;100.00;101141.59;5012328;28;20045;-63
2023/01/04 06:55:19;;;;;;;7.65;4.30;;;;;;;10.79;100.00;101130.03;5013431;28;20037;-62
2023/01/04 06:57:45;;;;;;;7.30;4.10;;;;;;;10.80;100.00;101118.56;5015830;28;20030;-66
2023/01/04 07:00:11;;;;;;;10.65;4.25;;;;;;;10.81;100.00;101128.22;5015304;28;20048;-61
2023/01/04 07:02:37;;;;;;;13.20;4.65;;;;;;;10.42;100.00;101045.13;5014674;28;20165;-64
2023/01/04 07:05:02;;;;;;;13.60;4.32;;;;;;;10.76;100.00;101109.06;4965741;28;20069;-63
2023/01/04 07:07:28;;;;;;;8.35;3.88;;;;;;;10.61;100.00;101080.53;5015517;28;20030;-63
2023/01/04 07:09:53;;;;;;;7.72;3.80;;;;;;;10.83;100.00;101122.91;4997928;28;20029;-65
2023/01/04 07:12:19;;;;;;;9.60;3.92;;;;;;;10.81;100.00;101101.00;4998220;28;20026;-64
2023/01/04 07:14:44;;;;;;;15.52;4.60;;;;;;;10.83;100.00;101104.47;5015896;28;20041;-65
2023/01/04 07:17:09;;;;;;;13.43;4.90;;;;;;;10.55;100.00;101060.50;5015423;28;20037;-65
2023/01/04 07:19:35;;;;;;;15.52;5.10;;;;;;;10.78;100.00;101103.72;4998016;28;20026;-64
2023/01/04 07:22:00;;;;;;;12.27;4.30;;;;;;;10.48;100.00;101034.41;5015662;28;20049;-64
2023/01/04 07:24:26;;;;;;;14.35;4.13;;;;;;;10.85;100.00;101102.66;5015489;28;20041;-63
2023/01/04 07:26:52;;;;;;;12.15;4.03;;;;;;;10.83;100.00;101101.84;5015321;28;20040;-62
2023/01/04 07:29:17;;;;;;;9.43;3.40;;;;;;;10.63;100.00;101053.25;4998186;28;20116;-63
2023/01/04 07:31:45;;;;;;;11.43;3.67;;;;;;;10.90;100.00;101112.16;4981404;28;20044;-60
2023/01/04 07:34:11;;;;;;;9.13;3.33;;;;;;;10.63;100.00;101040.09;5015010;28;20044;-64
2023/01/04 07:36:36;;;;;;;9.55;3.20;;;;;;;10.68;100.00;101066.28;5015335;28;20030;-63
2023/01/04 07:39:02;;;;;;;9.07;3.10;;;;;;;10.87;100.00;101101.69;4996691;28;20038;-66
2023/01/04 07:41:27;;;;;;;10.50;3.38;;;;;;;10.92;100.00;101102.41;5014125;28;20366;-66
2023/01/04 07:43:52;;;;;;;7.18;2.70;;;;;;;10.82;100.00;101077.28;5015055;28;20045;-66
2023/01/04 07:46:18;;;;;;;13.65;3.25;;;;;;;10.88;100.00;101095.53;5015208;28;20092;-65
2023/01/04 07:48:43;;;;;;;7.32;2.78;;;;;;;10.51;100.00;101021.16;5014438;28;20382;-64
2023/01/04 07:51:08;;;;;;;8.05;2.70;;;;;;;10.62;100.00;101063.84;5015125;28;20118;-65
2023/01/04 07:53:34;;;;;;;8.80;2.50;;;;;;;10.88;100.00;101086.78;5015308;28;20034;-64
2023/01/04 07:55:59;;;;;;;9.00;2.60;;;;;;;10.91;100.00;101095.44;5014505;28;20037;-65
2023/01/04 07:58:26;;;;;;;7.57;2.75;;;;;;;10.65;100.00;101050.59;5014558;28;20409;-63
2023/01/04 08:00:51;;;;;;;5.78;2.13;;;;;;;10.73;100.00;101075.78;4997561;28;20489;-65
2023/01/04 08:03:16;;;;;;;8.77;2.60;;;;;;;10.86;100.00;101096.50;5014792;28;20049;-64
2023/01/04 08:05:42;;;;;;;6.68;2.53;;;;;;;10.74;100.00;101064.31;5014407;28;20427;-63
2023/01/04 08:08:07;;;;;;;10.32;3.30;;;;;;;10.88;100.00;101084.13;5013488;28;20034;-65
2023/01/04 08:10:32;;;;;;;13.00;3.13;;;;;;;10.83;100.00;101078.97;5014673;28;20052;-66
2023/01/04 08:13:01;;;;;;;13.77;3.85;;;;;;;10.61;100.00;101035.78;4997200;28;20041;-65
2023/01/04 08:15:26;;;;;;;14.65;3.35;;;;;;;10.88;100.00;101086.78;5014572;28;20029;-64
2023/01/04 08:17:52;;;;;;;11.60;3.35;;;;;;;11.01;100.00;101110.06;4980866;28;20040;-65
2023/01/04 08:20:18;;;;;;;12.35;3.47;;;;;;;10.96;100.00;101101.44;5014470;28;20030;-65
2023/01/04 08:22:43;;;;;;;13.73;3.30;;;;;;;10.69;100.00;101046.94;4997110;28;20038;-63
2023/01/04 08:25:09;;;;;;;15.07;3.92;;;;;;;11.00;100.00;101105.72;4996776;28;20088;-64
2023/01/04 08:27:34;;;;;;;14.63;3.17;;;;;;;11.03;100.00;101146.91;4996859;28;20041;-65
2023/01/04 08:30:00;;;;;;;12.02;3.25;;;;;;;10.96;100.00;101124.28;5014243;28;20041;-63
2023/01/04 08:32:25;;;;;;;18.73;3.92;;;;;;;10.66;100.00;101063.69;5013802;28;20030;-63
2023/01/04 08:34:52;;;;;;;14.63;3.75;;;;;;;10.71;100.00;101053.88;5014125;28;20362;-63
2023/01/04 08:37:17;;;;;;;17.55;3.95;;;;;;;10.70;100.00;101046.91;4996501;28;20519;-61
2023/01/04 08:39:42;;;;;;;23.85;5.53;;;;;;;11.07;100.00;101120.41;5014188;28;20065;-64
2023/01/04 08:42:08;;;;;;;18.50;4.63;;;;;;;11.15;100.00;101142.09;5013958;28;20099;-64
2023/01/04 08:44:33;;;;;;;24.48;4.80;;;;;;;11.16;100.00;101116.63;5013494;28;20117;-59
2023/01/04 08:46:59;;;;;;;23.83;5.63;;;;;;;11.16;100.00;101128.03;4996588;28;20038;-62
2023/01/04 08:49:24;;;;;;;24.90;4.57;;;;;;;10.82;100.00;101068.50;5014291;28;20131;-66
2023/01/04 08:51:50;;;;;;;15.75;4.03;;;;;;;11.21;100.00;101135.78;5013788;28;20041;-64
2023/01/04 08:54:15;;;;;;;23.45;4.65;;;;;;;10.86;100.00;101093.84;5013760;28;20113;-63
2023/01/04 08:56:41;;;;;;;21.50;5.35;;;;;;;10.97;100.00;101107.56;5013167;28;20091;-64
2023/01/04 08:59:09;;;;;;;16.95;4.40;;;;;;;11.19;100.00;101137.63;4976363;28;20133;-63
2023/01/04 09:01:35;;;;;;;22.85;4.03;;;;;;;11.19;100.00;101137.63;4983455;28;20176;-64
2023/01/04 09:04:00;;;;;;;18.35;4.10;;;;;;;11.19;100.00;101132.34;5006565;28;20117;-64
2023/01/04 09:06:26;;;;;;;19.38;3.80;;;;;;;11.20;100.00;101149.91;4990091;28;20050;-62
2023/01/04 09:08:51;;;;;;;23.35;4.28;;;;;;;11.11;100.00;101153.66;4986209;28;20057;-63
2023/01/04 09:11:19;;;;;;;16.85;4.00;;;;;;;10.84;100.00;101098.28;5004944;28;20042;-63
2023/01/04 09:13:45;;;;;;;19.52;4.43;;;;;;;11.16;100.00;101146.47;4999361;28;20470;-60
2023/01/04 09:16:15;;;;;;;20.13;3.95;;;;;;;11.18;100.00;101157.81;5003654;28;20026;-63
2023/01/04 09:18:41;;;;;;;18.60;4.03;;;;;;;11.16;100.00;101162.28;4991882;28;20041;-61
2023/01/04 09:21:12;;;;;;;21.42;3.78;;;;;;;11.14;100.00;101129.00;5013621;28;20034;-61
2023/01/04 09:23:38;;;;;;;15.43;4.03;;;;;;;10.89;100.00;101115.69;5013313;28;20052;-62
2023/01/04 09:26:08;;;;;;;19.65;4.45;;;;;;;10.93;100.00;101121.72;5012845;28;20540;-61
2023/01/04 09:28:33;;;;;;;19.13;4.15;;;;;;;11.06;100.00;101144.19;5012394;28;20461;-62
2023/01/04 09:31:07;;;;;;;20.05;5.18;;;;;;;11.24;100.00;101169.94;4994862;28;20034;-62
2023/01/04 09:33:32;;;;;;;17.70;4.45;;;;;;;11.21;100.00;101170.03;4995606;28;20390;-60
2023/01/04 09:36:02;;;;;;;16.55;4.32;;;;;;;11.22;100.00;101163.88;5012880;28;20092;-63
2023/01/04 09:38:28;;;;;;;22.98;5.32;;;;;;;11.04;100.00;101138.94;4995222;28;20036;-64
2023/01/04 09:41:11;;;;;;;24.88;5.10;;;;;;;11.22;100.00;101179.69;4995426;28;20532;-61
2023/01/04 09:43:50;;;;;;;17.27;4.78;;;;;;;11.22;100.00;101190.22;4995259;28;20120;-63
2023/01/04 09:46:24;;;;;;;18.85;4.95;;;;;;;11.21;100.00;101168.28;4995127;28;20065;-64
2023/01/04 09:48:54;;;;;;;29.23;5.00;;;;;;;10.78;100.00;101104.59;5012995;28;20030;-63
2023/01/04 09:51:20;;;;;;;20.17;5.68;;;;;;;11.22;100.00;101177.06;5012689;28;20473;-64
2023/01/04 09:54:01;;;;;;;21.77;5.05;;;;;;;11.00;100.00;101134.69;4995331;28;20500;-62
2023/01/04 09:56:35;;;;;;;20.90;4.20;;;;;;;11.22;100.00;101177.91;5013064;28;20105;-64
2023/01/04 09:59:02;;;;;;;28.15;5.05;;;;;;;11.08;100.00;101169.56;4994675;28;20080;-63
2023/01/04 10:01:54;;;;;;;28.40;4.72;;;;;;;11.22;100.00;101174.41;4995146;28;20038;-62
2023/01/04 10:04:26;;;;;;;22.73;4.53;;;;;;;11.14;100.00;101164.13;4994251;28;20042;-63
2023/01/04 10:06:52;;;;;;;26.27;5.05;;;;;;;10.91;100.00;101105.97;4971382;28;20440;-65
2023/01/04 10:09:33;;;;;;;19.50;5.15;;;;;;;11.25;100.00;101176.97;4997623;28;20116;-64
2023/01/04 10:12:08;;;;;;;;;;;;;;;11.27;100.00;101143.50;5011647;28;20057;-63
2023/01/04 10:14:49;;;;;;;16.48;4.03;;;;;;;11.24;100.00;101146.25;4983726;28;19920;-63
2023/01/04 10:17:28;;;;;;;17.90;4.07;;;;;;;10.88;100.00;101100.81;4990913;28;20038;-62
2023/01/04 10:20:32;;;;;;;15.88;4.05;;;;;;;11.28;100.00;101175.09;4990848;28;20036;-63
2023/01/04 10:23:34;;;;;;;16.20;3.25;;;;;;;11.25;100.00;101158.50;4990841;28;20045;-64
2023/01/04 10:26:17;;;;;;;16.48;3.75;;;;;;;10.88;100.00;101098.16;4920813;28;20140;-63
2023/01/04 10:29:00;;;;;;;9.93;2.28;;;;;;;11.32;100.00;101177.66;4973397;28;20113;-64
2023/01/04 10:31:43;;;;;;;14.85;3.30;;;;;;;10.92;100.00;101096.28;4979290;28;20061;-63
2023/01/04 10:34:16;;;;;;;16.25;2.80;;;;;;;11.32;100.00;101160.91;5003548;28;20038;-64
2023/01/04 10:36:42;;;;;;;10.45;2.58;;;;;;;11.34;100.00;101170.56;5006683;28;20034;-63
2023/01/04 10:39:19;;;;;;;11.43;2.78;;;;;;;11.01;100.00;101104.78;5017444;28;20084;-63
2023/01/04 10:42:11;;;;;;;12.48;2.75;;;;;;;11.38;100.00;101162.53;5015948;28;20504;-62
2023/01/04 10:44:36;;;;;;;12.57;2.70;;;;;;;11.42;100.00;101174.69;5017278;28;20053;-65
2023/01/04 10:47:29;;;;;;;17.13;3.97;;;;;;;11.40;100.00;101154.56;4998911;28;20042;-63
2023/01/04 10:49:57;;;;;;;9.20;1.80;;;;;;;11.41;100.00;101186.16;5018375;28;20053;-62
2023/01/04 10:52:30;;;;;;;18.00;2.58;;;;;;;11.15;100.00;101097.31;5023502;28;20026;-64
2023/01/04 10:55:17;;;;;;;12.13;2.78;;;;;;;11.38;100.00;101141.44;5026879;28;20112;-64
2023/01/04 10:58:07;;;;;;;11.73;2.70;;;;;;;11.20;100.00;101110.38;5022413;28;20030;-63
2023/01/04 11:00:43;;;;;;;12.48;2.53;;;;;;;11.48;100.00;101134.09;4997205;28;20030;-64
2023/01/04 11:03:18;;;;;;;11.32;2.42;;;;;;;11.48;100.00;101134.09;5013657;28;20066;-63
2023/01/04 11:05:48;;;;;;;10.15;2.50;;;;;;;11.48;100.00;101102.44;5021009;28;20113;-62
2023/01/04 11:08:19;;;;;;;13.65;2.55;;;;;;;11.55;100.00;101133.00;5015090;28;20052;-63
2023/01/04 11:11:19;;;;;;;6.25;2.40;;;;;;;11.61;100.00;101116.97;5009542;28;20033;-64
2023/01/04 11:13:45;;;;;;;13.65;2.65;;;;;;;11.28;100.00;101051.25;4977832;28;20460;-62
2023/01/04 11:16:10;;;;;;;9.55;2.10;;;;;;;11.40;100.00;101078.13;5028097;28;20033;-63
2023/01/04 11:18:38;;;;;;;11.75;2.67;;;;;;;11.44;100.00;101063.94;5031317;28;20044;-63
2023/01/04 11:21:09;;;;;;;10.70;2.50;;;;;;;11.72;100.00;101110.47;5005114;28;20071;-63
2023/01/04 11:23:34;;;;;;;9.40;2.80;;;;;;;11.80;100.00;101110.22;5019000;28;20033;-62
2023/01/04 11:26:05;;;;;;;10.18;2.83;;;;;;;11.74;100.00;101110.41;5020876;28;20124;-62
2023/01/04 11:28:43;;;;;;;12.40;2.88;;;;;;;11.80;100.00;101111.09;5008798;28;20100;-64
2023/01/04 11:31:12;;;;;;;15.85;3.22;;;;;;;11.85;100.00;101119.69;5034379;28;20053;-63
2023/01/04 11:34:00;;;;;;;11.65;3.20;;;;;;;11.95;100.00;101130.81;5036317;28;20095;-62
2023/01/04 11:36:37;;;;;;;12.85;2.88;;;;;;;11.99;100.00;101131.59;5003136;28;20477;-62
2023/01/04 11:39:05;;;;;;;15.15;3.33;;;;;;;11.92;100.00;101125.63;5012177;28;20030;-62
2023/01/04 11:41:31;;;;;;;14.43;2.80;;;;;;;12.02;100.00;101142.03;5017228;28;20503;-64
2023/01/04 11:43:57;;;;;;;17.58;3.55;;;;;;;12.00;100.00;101118.31;5004410;28;20038;-63
2023/01/04 11:46:24;;;;;;;13.32;3.13;;;;;;;12.02;100.00;101140.25;5024890;28;20056;-61
2023/01/04 11:48:50;;;;;;;11.63;2.60;;;;;;;11.69;100.00;101062.22;5010815;28;20149;-63
2023/01/04 11:51:26;;;;;;;15.05;3.17;;;;;;;12.10;100.00;101129.44;4998765;28;20124;-64
2023/01/04 11:54:05;;;;;;;16.35;3.58;;;;;;;12.11;100.00;101116.19;5012894;28;20040;-63
2023/01/04 11:56:35;;;;;;;12.13;2.83;;;;;;;12.07;100.00;101111.06;5014531;28;20656;-62
2023/01/04 11:59:03;;;;;;;10.50;3.85;;;;;;;11.82;100.00;101055.66;4996484;28;20038;-62
2023/01/04 12:01:29;;;;;;;14.52;3.25;;;;;;;12.17;100.00;101104.56;5014136;28;20528;-62
2023/01/04 12:03:55;;;;;;;16.85;3.17;;;;;;;11.99;100.00;101036.59;5014816;28;20030;-60
2023/01/04 12:06:29;;;;;;;19.15;3.60;;;;;;;12.29;100.00;101119.97;5009711;28;20045;-63
2023/01/04 12:08:55;;;;;;;13.13;2.70;;;;;;;12.34;100.00;101113.63;5014162;28;20034;-62
2023/01/04 12:11:28;;;;;;;13.38;3.15;;;;;;;12.32;100.00;101104.00;4995797;28;20038;-63